PWSweather.com
Personal Weather Stations
Station Observations
KOMOKA
Komoka Village, Komoka, ON N0L IRO

Komoka VillageKomoka, ON N0L IRO

Lat: 42.9542444, Lon: -81.4348861

Elevation: 805

Station Type: Davis Vantage Pro 2

Latest ConditionsUpdated 8:12:53 PM EDT Friday, Oct 31, 2014
Currently Today's Max Today's Min Today's Average
Temperature 42.8°F6.0°C 43.0°F6.1°C 42.8°F6.0°C 42.9°F6.1°C
Dew Point 37.9°F3.3°C 38.5°F3.6°C 37.9°F3.3°C 38.2°F3.4°C
Winds Calm Calm Calm Calm - Calm Calm
Wind Gusts 1.0 mph1.6 kmh 3.0 mph4.8 kmh - -
Humidity 83% 84% 83% 84%
Pressure 29.99 in1015.6 mb 29.99 in1015.6 mb 29.99 in1015.6 mb -
Precipitation - 0.17 in4.3 mm - -
Hour Temp Dew Point Humidity Winds Wind Gusts Pressure Precip Precip Rate Daily Precip Total
07:58 PM 43.0°F6.1°C 38.5°F3.6°C 84% Calm Calm 4.0 mph6.4 kmh 29.99 in1015.6 mb 0.01 in0.3 mm 0.00 in/hr0.0 mm/hr 0.17 in4.3 mm
07:51 PM 43.2°F6.2°C 38.7°F3.7°C 84% Calm Calm 5.0 mph8.0 kmh 29.98 in1015.2 mb 0.01 in0.3 mm 0.00 in/hr0.0 mm/hr 0.17 in4.3 mm
07:44 PM 43.3°F6.3°C 38.8°F3.8°C 84% Calm Calm 5.0 mph8.0 kmh 29.98 in1015.2 mb 0.01 in0.3 mm 0.00 in/hr0.0 mm/hr 0.17 in4.3 mm
07:37 PM 43.5°F6.4°C 39.0°F3.9°C 84% Calm Calm 1.0 mph1.6 kmh 29.98 in1015.2 mb 0.01 in0.3 mm 0.00 in/hr0.0 mm/hr 0.17 in4.3 mm
07:30 PM 43.7°F6.5°C 39.2°F4.0°C 84% Calm Calm 1.0 mph1.6 kmh 29.97 in1014.9 mb 0.01 in0.3 mm 0.00 in/hr0.0 mm/hr 0.17 in4.3 mm
07:23 PM 43.7°F6.5°C 39.2°F4.0°C 84% Calm Calm -- 29.97 in1014.9 mb 0.01 in0.3 mm 0.00 in/hr0.0 mm/hr 0.17 in4.3 mm
07:16 PM 43.7°F6.5°C 39.2°F4.0°C 84% Calm Calm -- 29.97 in1014.9 mb 0.01 in0.3 mm 0.09 in/hr2.3 mm/hr 0.17 in4.3 mm
07:09 PM 43.9°F6.6°C 39.2°F4.0°C 84% Calm Calm -- 29.97 in1014.9 mb 0.00 in0.0 mm 0.00 in/hr0.0 mm/hr 0.17 in4.3 mm
07:02 PM 43.9°F6.6°C 39.4°F4.1°C 84% Calm Calm -- 29.97 in1014.9 mb 0.01 in0.3 mm 0.00 in/hr0.0 mm/hr 0.17 in4.3 mm
06:55 PM 44.1°F6.7°C 39.6°F4.2°C 84% Calm Calm -- 29.97 in1014.9 mb 0.01 in0.3 mm 0.00 in/hr0.0 mm/hr 0.17 in4.3 mm
06:48 PM 44.1°F6.7°C 39.6°F4.2°C 84% Calm Calm -- 29.96 in1014.6 mb 0.01 in0.3 mm 0.00 in/hr0.0 mm/hr 0.17 in4.3 mm
06:41 PM 44.1°F6.7°C 39.6°F4.2°C 84% Calm Calm -- 29.96 in1014.6 mb 0.02 in0.5 mm 0.00 in/hr0.0 mm/hr 0.17 in4.3 mm
06:34 PM 44.2°F6.8°C 39.7°F4.3°C 84% Calm Calm -- 29.96 in1014.6 mb 0.02 in0.5 mm 0.00 in/hr0.0 mm/hr 0.17 in4.3 mm
06:27 PM 44.2°F6.8°C 39.7°F4.3°C 84% Calm Calm -- 29.95 in1014.2 mb 0.02 in0.5 mm 0.00 in/hr0.0 mm/hr 0.17 in4.3 mm
06:20 PM 44.2°F6.8°C 39.7°F4.3°C 84% Calm Calm -- 29.95 in1014.2 mb 0.02 in0.5 mm 0.00 in/hr0.0 mm/hr 0.17 in4.3 mm
06:13 PM 44.2°F6.8°C 39.7°F4.3°C 84% Calm Calm -- 29.95 in1014.2 mb 0.02 in0.5 mm 0.00 in/hr0.0 mm/hr 0.17 in4.3 mm
06:06 PM 44.4°F6.9°C 39.9°F4.4°C 84% Calm Calm -- 29.95 in1014.2 mb 0.02 in0.5 mm 0.00 in/hr0.0 mm/hr 0.17 in4.3 mm
05:59 PM 44.4°F6.9°C 39.9°F4.4°C 84% Calm Calm -- 29.95 in1014.2 mb 0.02 in0.5 mm 0.00 in/hr0.0 mm/hr 0.16 in4.1 mm
05:52 PM 44.4°F6.9°C 40.3°F4.6°C 85% Calm Calm -- 29.94 in1013.9 mb 0.02 in0.5 mm 0.00 in/hr0.0 mm/hr 0.16 in4.1 mm
05:45 PM 44.4°F6.9°C 40.3°F4.6°C 85% Calm Calm -- 29.94 in1013.9 mb 0.02 in0.5 mm 0.00 in/hr0.0 mm/hr 0.16 in4.1 mm
05:38 PM 44.6°F7.0°C 40.3°F4.6°C 85% Calm Calm -- 29.94 in1013.9 mb 0.02 in0.5 mm 0.00 in/hr0.0 mm/hr 0.15 in3.8 mm
05:31 PM 44.8°F7.1°C 40.5°F4.7°C 85% Calm Calm -- 29.93 in1013.5 mb 0.02 in0.5 mm 0.00 in/hr0.0 mm/hr 0.15 in3.8 mm
05:24 PM 44.8°F7.1°C 40.6°F4.8°C 85% Calm Calm 1.0 mph1.6 kmh 29.93 in1013.5 mb 0.02 in0.5 mm 0.00 in/hr0.0 mm/hr 0.15 in3.8 mm
05:17 PM 45.0°F7.2°C 40.6°F4.8°C 85% Calm Calm 1.0 mph1.6 kmh 29.93 in1013.5 mb 0.02 in0.5 mm 0.00 in/hr0.0 mm/hr 0.14 in3.6 mm
05:10 PM 45.0°F7.2°C 40.6°F4.8°C 85% Calm Calm 1.0 mph1.6 kmh 29.93 in1013.5 mb 0.02 in0.5 mm 0.00 in/hr0.0 mm/hr 0.14 in3.6 mm
05:03 PM 45.0°F7.2°C 40.6°F4.8°C 85% Calm Calm 1.0 mph1.6 kmh 29.93 in1013.5 mb 0.02 in0.5 mm 0.00 in/hr0.0 mm/hr 0.14 in3.6 mm
04:56 PM 45.0°F7.2°C 40.8°F4.9°C 85% Calm Calm 1.0 mph1.6 kmh 29.92 in1013.2 mb 0.02 in0.5 mm 0.00 in/hr0.0 mm/hr 0.14 in3.6 mm
04:49 PM 45.1°F7.3°C 40.8°F4.9°C 85% Calm Calm 3.0 mph4.8 kmh 29.92 in1013.2 mb 0.03 in0.8 mm 0.09 in/hr2.3 mm/hr 0.14 in3.6 mm
04:42 PM 45.1°F7.3°C 40.8°F4.9°C 85% Calm Calm 3.0 mph4.8 kmh 29.92 in1013.2 mb 0.02 in0.5 mm 0.00 in/hr0.0 mm/hr 0.13 in3.3 mm
04:35 PM 45.0°F7.2°C 40.8°F4.9°C 85% Calm Calm -- 29.92 in1013.2 mb 0.03 in0.8 mm 0.00 in/hr0.0 mm/hr 0.13 in3.3 mm
04:28 PM 45.0°F7.2°C 40.8°F4.9°C 85% Calm Calm -- 29.92 in1013.2 mb 0.03 in0.8 mm 0.09 in/hr2.3 mm/hr 0.13 in3.3 mm
04:21 PM 45.0°F7.2°C 41.0°F5.0°C 86% Calm Calm 3.0 mph4.8 kmh 29.92 in1013.2 mb 0.02 in0.5 mm 0.00 in/hr0.0 mm/hr 0.13 in3.3 mm
04:14 PM 45.0°F7.2°C 41.0°F5.0°C 86% Calm Calm 3.0 mph4.8 kmh 29.92 in1013.2 mb 0.02 in0.5 mm 0.00 in/hr0.0 mm/hr 0.13 in3.3 mm
04:07 PM 45.0°F7.2°C 41.0°F5.0°C 86% Calm Calm -- 29.92 in1013.2 mb 0.02 in0.5 mm 0.00 in/hr0.0 mm/hr 0.13 in3.3 mm
04:00 PM 45.0°F7.2°C 41.2°F5.1°C 87% Calm Calm 3.0 mph4.8 kmh 29.91 in1012.9 mb 0.02 in0.5 mm 0.00 in/hr0.0 mm/hr 0.12 in3.0 mm
03:53 PM 45.0°F7.2°C 41.2°F5.1°C 87% Calm Calm 1.0 mph1.6 kmh 29.91 in1012.9 mb 0.02 in0.5 mm 0.00 in/hr0.0 mm/hr 0.11 in2.8 mm
03:46 PM 45.1°F7.3°C 41.5°F5.3°C 87% Calm Calm 1.0 mph1.6 kmh 29.91 in1012.9 mb 0.02 in0.5 mm 0.00 in/hr0.0 mm/hr 0.11 in2.8 mm
03:39 PM 45.3°F7.4°C 41.7°F5.4°C 87% Calm Calm 4.0 mph6.4 kmh 29.91 in1012.9 mb 0.02 in0.5 mm 0.00 in/hr0.0 mm/hr 0.10 in2.5 mm
03:32 PM 45.7°F7.6°C 41.9°F5.5°C 87% Calm Calm 3.0 mph4.8 kmh 29.91 in1012.9 mb 0.02 in0.5 mm 0.00 in/hr0.0 mm/hr 0.10 in2.5 mm
03:25 PM 45.9°F7.7°C 42.3°F5.7°C 87% Calm Calm 3.0 mph4.8 kmh 29.91 in1012.9 mb 0.02 in0.5 mm 0.00 in/hr0.0 mm/hr 0.10 in2.5 mm
03:18 PM 46.0°F7.8°C 42.1°F5.6°C 86% Calm Calm 1.0 mph1.6 kmh 29.91 in1012.9 mb 0.03 in0.8 mm 0.00 in/hr0.0 mm/hr 0.10 in2.5 mm
03:11 PM 46.0°F7.8°C 42.1°F5.6°C 86% Calm Calm -- 29.91 in1012.9 mb 0.03 in0.8 mm 0.00 in/hr0.0 mm/hr 0.10 in2.5 mm
03:04 PM 46.0°F7.8°C 42.1°F5.6°C 86% Calm Calm -- 29.91 in1012.9 mb 0.04 in1.0 mm 0.01 in/hr0.3 mm/hr 0.10 in2.5 mm
02:57 PM 46.0°F7.8°C 42.3°F5.7°C 87% Calm Calm 1.0 mph1.6 kmh 29.91 in1012.9 mb 0.03 in0.8 mm 0.00 in/hr0.0 mm/hr 0.09 in2.3 mm
02:50 PM 46.0°F7.8°C 42.3°F5.7°C 87% Calm Calm 1.0 mph1.6 kmh 29.91 in1012.9 mb 0.03 in0.8 mm 0.09 in/hr2.3 mm/hr 0.09 in2.3 mm
02:43 PM 46.0°F7.8°C 42.3°F5.7°C 87% Calm Calm 1.0 mph1.6 kmh 29.91 in1012.9 mb 0.02 in0.5 mm 0.00 in/hr0.0 mm/hr 0.09 in2.3 mm
02:36 PM 46.0°F7.8°C 42.3°F5.7°C 87% Calm Calm 1.0 mph1.6 kmh 29.91 in1012.9 mb 0.02 in0.5 mm 0.00 in/hr0.0 mm/hr 0.08 in2.0 mm
02:29 PM 46.0°F7.8°C 42.4°F5.8°C 87% Calm Calm 1.0 mph1.6 kmh 29.91 in1012.9 mb 0.02 in0.5 mm 0.09 in/hr2.3 mm/hr 0.08 in2.0 mm
02:22 PM 46.0°F7.8°C 42.1°F5.6°C 86% Calm Calm -- 29.91 in1012.9 mb 0.01 in0.3 mm 0.00 in/hr0.0 mm/hr 0.07 in1.8 mm
02:15 PM 46.0°F7.8°C 42.3°F5.7°C 87% Calm Calm -- 29.91 in1012.9 mb 0.01 in0.3 mm 0.00 in/hr0.0 mm/hr 0.07 in1.8 mm
02:08 PM 46.0°F7.8°C 42.3°F5.7°C 87% Calm Calm 3.0 mph4.8 kmh 29.91 in1012.9 mb 0.02 in0.5 mm 0.09 in/hr2.3 mm/hr 0.07 in1.8 mm
02:01 PM 46.2°F7.9°C 42.6°F5.9°C 87% Calm Calm 1.0 mph1.6 kmh 29.91 in1012.9 mb 0.01 in0.3 mm 0.00 in/hr0.0 mm/hr 0.06 in1.5 mm
01:54 PM 46.0°F7.8°C 42.4°F5.8°C 87% Calm Calm 1.0 mph1.6 kmh 29.91 in1012.9 mb 0.01 in0.3 mm 0.00 in/hr0.0 mm/hr 0.06 in1.5 mm
01:47 PM 46.0°F7.8°C 42.1°F5.6°C 86% Calm Calm -- 29.92 in1013.2 mb 0.01 in0.3 mm 0.00 in/hr0.0 mm/hr 0.06 in1.5 mm
01:40 PM 46.0°F7.8°C 42.3°F5.7°C 87% Calm Calm -- 29.92 in1013.2 mb 0.01 in0.3 mm 0.00 in/hr0.0 mm/hr 0.06 in1.5 mm
01:33 PM 46.0°F7.8°C 42.3°F5.7°C 87% Calm Calm -- 29.92 in1013.2 mb 0.01 in0.3 mm 0.00 in/hr0.0 mm/hr 0.06 in1.5 mm
01:26 PM 45.9°F7.7°C 42.3°F5.7°C 87% Calm Calm -- 29.92 in1013.2 mb 0.01 in0.3 mm 0.00 in/hr0.0 mm/hr 0.06 in1.5 mm
01:19 PM 45.9°F7.7°C 42.3°F5.7°C 87% Calm Calm -- 29.92 in1013.2 mb 0.01 in0.3 mm 0.00 in/hr0.0 mm/hr 0.06 in1.5 mm
01:12 PM 45.9°F7.7°C 41.9°F5.5°C 86% Calm Calm -- 29.92 in1013.2 mb 0.02 in0.5 mm 0.09 in/hr2.3 mm/hr 0.06 in1.5 mm
01:05 PM 45.9°F7.7°C 41.9°F5.5°C 86% Calm Calm 1.0 mph1.6 kmh 29.92 in1013.2 mb 0.01 in0.3 mm 0.00 in/hr0.0 mm/hr 0.06 in1.5 mm
12:58 PM 45.7°F7.6°C 41.9°F5.5°C 87% Calm Calm -- 29.92 in1013.2 mb 0.01 in0.3 mm 0.00 in/hr0.0 mm/hr 0.06 in1.5 mm
12:51 PM 45.5°F7.5°C 41.9°F5.5°C 87% Calm Calm 3.0 mph4.8 kmh 29.93 in1013.5 mb 0.01 in0.3 mm 0.00 in/hr0.0 mm/hr 0.06 in1.5 mm
12:44 PM 45.3°F7.4°C 41.7°F5.4°C 87% Calm Calm 3.0 mph4.8 kmh 29.93 in1013.5 mb 0.02 in0.5 mm 0.00 in/hr0.0 mm/hr 0.06 in1.5 mm
12:37 PM 45.3°F7.4°C 41.7°F5.4°C 87% Calm Calm 1.0 mph1.6 kmh 29.93 in1013.5 mb 0.02 in0.5 mm 0.00 in/hr0.0 mm/hr 0.06 in1.5 mm
12:30 PM 45.3°F7.4°C 41.7°F5.4°C 87% Calm Calm 1.0 mph1.6 kmh 29.93 in1013.5 mb 0.02 in0.5 mm 0.00 in/hr0.0 mm/hr 0.06 in1.5 mm
12:23 PM 45.3°F7.4°C 41.7°F5.4°C 87% Calm Calm -- 29.93 in1013.5 mb 0.02 in0.5 mm 0.00 in/hr0.0 mm/hr 0.06 in1.5 mm
12:16 PM 45.3°F7.4°C 41.7°F5.4°C 87% Calm Calm 1.0 mph1.6 kmh 29.93 in1013.5 mb 0.02 in0.5 mm 0.09 in/hr2.3 mm/hr 0.06 in1.5 mm
12:09 PM 45.3°F7.4°C 41.7°F5.4°C 87% Calm Calm 1.0 mph1.6 kmh 29.93 in1013.5 mb 0.01 in0.3 mm 0.00 in/hr0.0 mm/hr 0.05 in1.3 mm
12:02 PM 45.3°F7.4°C 41.7°F5.4°C 87% Calm Calm 1.0 mph1.6 kmh 29.93 in1013.5 mb 0.01 in0.3 mm 0.00 in/hr0.0 mm/hr 0.05 in1.3 mm
11:55 AM 45.3°F7.4°C 41.7°F5.4°C 87% Calm Calm 1.0 mph1.6 kmh 29.93 in1013.5 mb 0.01 in0.3 mm 0.09 in/hr2.3 mm/hr 0.05 in1.3 mm
11:48 AM 45.1°F7.3°C 41.5°F5.3°C 87% Calm Calm -- 29.93 in1013.5 mb 0.00 in0.0 mm 0.00 in/hr0.0 mm/hr 0.04 in1.0 mm
11:41 AM 45.1°F7.3°C 41.5°F5.3°C 87% Calm Calm 1.0 mph1.6 kmh 29.94 in1013.9 mb 0.00 in0.0 mm 0.00 in/hr0.0 mm/hr 0.04 in1.0 mm
11:34 AM 45.1°F7.3°C 41.5°F5.3°C 87% Calm Calm 1.0 mph1.6 kmh 29.93 in1013.5 mb 0.00 in0.0 mm 0.00 in/hr0.0 mm/hr 0.04 in1.0 mm
11:27 AM 45.0°F7.2°C 41.0°F5.0°C 86% Calm Calm -- 29.94 in1013.9 mb 0.00 in0.0 mm 0.00 in/hr0.0 mm/hr 0.04 in1.0 mm
11:20 AM 44.8°F7.1°C 40.8°F4.9°C 86% Calm Calm -- 29.93 in1013.5 mb 0.00 in0.0 mm 0.00 in/hr0.0 mm/hr 0.04 in1.0 mm
11:13 AM 44.6°F7.0°C 40.6°F4.8°C 86% Calm Calm 1.0 mph1.6 kmh 29.93 in1013.5 mb 0.00 in0.0 mm 0.00 in/hr0.0 mm/hr 0.04 in1.0 mm
11:06 AM 44.4°F6.9°C 40.6°F4.8°C 86% Calm Calm 1.0 mph1.6 kmh 29.93 in1013.5 mb 0.00 in0.0 mm 0.00 in/hr0.0 mm/hr 0.04 in1.0 mm
10:59 AM 44.4°F6.9°C 39.9°F4.4°C 84% Calm Calm 1.0 mph1.6 kmh 29.93 in1013.5 mb 0.00 in0.0 mm 0.00 in/hr0.0 mm/hr 0.04 in1.0 mm
10:52 AM 44.2°F6.8°C 39.7°F4.3°C 84% Calm Calm -- 29.94 in1013.9 mb 0.00 in0.0 mm 0.00 in/hr0.0 mm/hr 0.04 in1.0 mm
10:45 AM 44.2°F6.8°C 39.7°F4.3°C 84% Calm Calm 3.0 mph4.8 kmh 29.94 in1013.9 mb 0.00 in0.0 mm 0.00 in/hr0.0 mm/hr 0.04 in1.0 mm
10:38 AM 44.2°F6.8°C 39.4°F4.1°C 83% Calm Calm -- 29.94 in1013.9 mb 0.00 in0.0 mm 0.00 in/hr0.0 mm/hr 0.04 in1.0 mm
10:31 AM 44.1°F6.7°C 39.2°F4.0°C 83% Calm Calm -- 29.94 in1013.9 mb 0.00 in0.0 mm 0.00 in/hr0.0 mm/hr 0.04 in1.0 mm
10:24 AM 43.9°F6.6°C 39.0°F3.9°C 83% Calm Calm -- 29.94 in1013.9 mb 0.00 in0.0 mm 0.00 in/hr0.0 mm/hr 0.04 in1.0 mm
10:17 AM 43.9°F6.6°C 39.0°F3.9°C 83% Calm Calm -- 29.94 in1013.9 mb 0.00 in0.0 mm 0.00 in/hr0.0 mm/hr 0.04 in1.0 mm
10:10 AM 43.9°F6.6°C 38.7°F3.7°C 82% Calm Calm -- 29.94 in1013.9 mb 0.00 in0.0 mm 0.00 in/hr0.0 mm/hr 0.04 in1.0 mm
10:03 AM 43.9°F6.6°C 38.3°F3.5°C 81% Calm Calm -- 29.95 in1014.2 mb 0.00 in0.0 mm 0.00 in/hr0.0 mm/hr 0.04 in1.0 mm
09:56 AM 43.5°F6.4°C 38.1°F3.4°C 81% Calm Calm -- 29.95 in1014.2 mb 0.00 in0.0 mm 0.00 in/hr0.0 mm/hr 0.04 in1.0 mm
09:49 AM 43.5°F6.4°C 38.1°F3.4°C 81% Calm Calm -- 29.95 in1014.2 mb 0.00 in0.0 mm 0.00 in/hr0.0 mm/hr 0.04 in1.0 mm
09:42 AM 43.3°F6.3°C 38.3°F3.5°C 82% Calm Calm -- 29.95 in1014.2 mb 0.00 in0.0 mm 0.00 in/hr0.0 mm/hr 0.04 in1.0 mm
09:35 AM 43.2°F6.2°C 38.1°F3.4°C 82% Calm Calm -- 29.95 in1014.2 mb 0.00 in0.0 mm 0.00 in/hr0.0 mm/hr 0.04 in1.0 mm
09:28 AM 43.2°F6.2°C 37.6°F3.1°C 81% Calm Calm -- 29.95 in1014.2 mb 0.00 in0.0 mm 0.00 in/hr0.0 mm/hr 0.04 in1.0 mm
09:21 AM 43.0°F6.1°C 37.8°F3.2°C 82% Calm Calm -- 29.95 in1014.2 mb 0.00 in0.0 mm 0.00 in/hr0.0 mm/hr 0.04 in1.0 mm
09:14 AM 42.8°F6.0°C 37.8°F3.2°C 82% Calm Calm -- 29.95 in1014.2 mb 0.00 in0.0 mm 0.00 in/hr0.0 mm/hr 0.04 in1.0 mm
09:07 AM 42.6°F5.9°C 37.4°F3.0°C 82% Calm Calm -- 29.95 in1014.2 mb 0.00 in0.0 mm 0.00 in/hr0.0 mm/hr 0.04 in1.0 mm
09:00 AM 42.4°F5.8°C 37.4°F3.0°C 82% Calm Calm -- 29.95 in1014.2 mb 0.00 in0.0 mm 0.00 in/hr0.0 mm/hr 0.04 in1.0 mm
08:53 AM 42.4°F5.8°C 37.6°F3.1°C 83% Calm Calm -- 29.95 in1014.2 mb 0.00 in0.0 mm 0.00 in/hr0.0 mm/hr 0.04 in1.0 mm
08:46 AM 42.3°F5.7°C 37.6°F3.1°C 83% Calm Calm -- 29.95 in1014.2 mb 0.00 in0.0 mm 0.00 in/hr0.0 mm/hr 0.04 in1.0 mm
08:39 AM 42.3°F5.7°C 37.4°F3.0°C 83% Calm Calm -- 29.95 in1014.2 mb 0.00 in0.0 mm 0.00 in/hr0.0 mm/hr 0.04 in1.0 mm
08:32 AM 42.1°F5.6°C 37.2°F2.9°C 83% Calm Calm -- 29.95 in1014.2 mb 0.00 in0.0 mm 0.00 in/hr0.0 mm/hr 0.04 in1.0 mm
08:25 AM 42.1°F5.6°C 37.6°F3.1°C 84% Calm Calm -- 29.95 in1014.2 mb 0.00 in0.0 mm 0.00 in/hr0.0 mm/hr 0.04 in1.0 mm
08:18 AM 42.1°F5.6°C 37.6°F3.1°C 84% Calm Calm -- 29.95 in1014.2 mb 0.00 in0.0 mm 0.00 in/hr0.0 mm/hr 0.04 in1.0 mm
08:11 AM 42.1°F5.6°C 37.6°F3.1°C 84% Calm Calm -- 29.95 in1014.2 mb 0.00 in0.0 mm 0.00 in/hr0.0 mm/hr 0.04 in1.0 mm
08:04 AM 42.1°F5.6°C 37.6°F3.1°C 84% Calm Calm -- 29.95 in1014.2 mb 0.01 in0.3 mm 0.00 in/hr0.0 mm/hr 0.04 in1.0 mm
07:57 AM 42.1°F5.6°C 37.6°F3.1°C 84% Calm Calm -- 29.95 in1014.2 mb 0.01 in0.3 mm 0.00 in/hr0.0 mm/hr 0.04 in1.0 mm
07:50 AM 42.3°F5.7°C 37.8°F3.2°C 84% Calm Calm -- 29.95 in1014.2 mb 0.01 in0.3 mm 0.00 in/hr0.0 mm/hr 0.04 in1.0 mm
07:43 AM 42.3°F5.7°C 37.8°F3.2°C 84% Calm Calm -- 29.95 in1014.2 mb 0.01 in0.3 mm 0.00 in/hr0.0 mm/hr 0.04 in1.0 mm
07:36 AM 42.3°F5.7°C 37.8°F3.2°C 84% Calm Calm -- 29.95 in1014.2 mb 0.01 in0.3 mm 0.00 in/hr0.0 mm/hr 0.04 in1.0 mm
07:29 AM 42.3°F5.7°C 37.8°F3.2°C 84% Calm Calm -- 29.95 in1014.2 mb 0.01 in0.3 mm 0.00 in/hr0.0 mm/hr 0.04 in1.0 mm
07:22 AM 42.3°F5.7°C 37.8°F3.2°C 84% Calm Calm -- 29.96 in1014.6 mb 0.01 in0.3 mm 0.00 in/hr0.0 mm/hr 0.04 in1.0 mm
07:15 AM 42.3°F5.7°C 37.8°F3.2°C 84% Calm Calm -- 29.96 in1014.6 mb 0.01 in0.3 mm 0.09 in/hr2.3 mm/hr 0.04 in1.0 mm
07:08 AM 42.3°F5.7°C 37.8°F3.2°C 84% Calm Calm -- 29.96 in1014.6 mb 0.00 in0.0 mm 0.00 in/hr0.0 mm/hr 0.03 in0.8 mm
07:01 AM 42.3°F5.7°C 37.8°F3.2°C 84% Calm Calm -- 29.96 in1014.6 mb 0.00 in0.0 mm 0.00 in/hr0.0 mm/hr 0.03 in0.8 mm
06:54 AM 42.3°F5.7°C 37.8°F3.2°C 84% Calm Calm -- 29.96 in1014.6 mb 0.00 in0.0 mm 0.00 in/hr0.0 mm/hr 0.03 in0.8 mm
06:47 AM 42.3°F5.7°C 37.8°F3.2°C 84% Calm Calm -- 29.96 in1014.6 mb 0.01 in0.3 mm 0.00 in/hr0.0 mm/hr 0.03 in0.8 mm
06:40 AM 42.3°F5.7°C 37.9°F3.3°C 85% Calm Calm -- 29.96 in1014.6 mb 0.01 in0.3 mm 0.00 in/hr0.0 mm/hr 0.03 in0.8 mm
06:33 AM 42.3°F5.7°C 38.1°F3.4°C 85% Calm Calm -- 29.96 in1014.6 mb 0.01 in0.3 mm 0.00 in/hr0.0 mm/hr 0.03 in0.8 mm
06:26 AM 42.3°F5.7°C 38.1°F3.4°C 85% Calm Calm -- 29.96 in1014.6 mb 0.01 in0.3 mm 0.00 in/hr0.0 mm/hr 0.03 in0.8 mm
06:19 AM 42.3°F5.7°C 38.1°F3.4°C 85% Calm Calm -- 29.97 in1014.9 mb 0.01 in0.3 mm 0.00 in/hr0.0 mm/hr 0.03 in0.8 mm
06:12 AM 42.3°F5.7°C 38.1°F3.4°C 85% Calm Calm -- 29.97 in1014.9 mb 0.01 in0.3 mm 0.00 in/hr0.0 mm/hr 0.03 in0.8 mm
06:05 AM 42.3°F5.7°C 38.1°F3.4°C 85% Calm Calm -- 29.97 in1014.9 mb 0.01 in0.3 mm 0.00 in/hr0.0 mm/hr 0.03 in0.8 mm
05:58 AM 42.3°F5.7°C 38.1°F3.4°C 85% Calm Calm -- 29.97 in1014.9 mb 0.01 in0.3 mm 0.09 in/hr2.3 mm/hr 0.03 in0.8 mm
05:51 AM 42.4°F5.8°C 38.5°F3.6°C 86% Calm Calm -- 29.97 in1014.9 mb 0.00 in0.0 mm 0.00 in/hr0.0 mm/hr 0.03 in0.8 mm
05:44 AM 42.3°F5.7°C 38.5°F3.6°C 86% Calm Calm -- 29.97 in1014.9 mb 0.00 in0.0 mm 0.00 in/hr0.0 mm/hr 0.02 in0.5 mm
05:37 AM 42.4°F5.8°C 38.5°F3.6°C 86% Calm Calm -- 29.98 in1015.2 mb 0.01 in0.3 mm 0.00 in/hr0.0 mm/hr 0.02 in0.5 mm
05:30 AM 42.3°F5.7°C 38.5°F3.6°C 86% Calm Calm -- 29.98 in1015.2 mb 0.01 in0.3 mm 0.00 in/hr0.0 mm/hr 0.02 in0.5 mm
05:23 AM 42.3°F5.7°C 38.5°F3.6°C 86% Calm Calm -- 29.98 in1015.2 mb 0.01 in0.3 mm 0.00 in/hr0.0 mm/hr 0.02 in0.5 mm
05:16 AM 42.3°F5.7°C 38.5°F3.6°C 86% Calm Calm -- 29.98 in1015.2 mb 0.02 in0.5 mm 0.00 in/hr0.0 mm/hr 0.02 in0.5 mm
05:09 AM 42.3°F5.7°C 38.5°F3.6°C 86% Calm Calm -- 29.98 in1015.2 mb 0.02 in0.5 mm 0.00 in/hr0.0 mm/hr 0.02 in0.5 mm
05:02 AM 42.4°F5.8°C 38.5°F3.6°C 86% Calm Calm -- 29.98 in1015.2 mb 0.02 in0.5 mm 0.00 in/hr0.0 mm/hr 0.02 in0.5 mm
04:55 AM 42.3°F5.7°C 38.5°F3.6°C 86% Calm Calm -- 29.98 in1015.2 mb 0.02 in0.5 mm 0.00 in/hr0.0 mm/hr 0.02 in0.5 mm
04:48 AM 42.3°F5.7°C 38.3°F3.5°C 86% Calm Calm -- 29.98 in1015.2 mb 0.02 in0.5 mm 0.00 in/hr0.0 mm/hr 0.02 in0.5 mm
04:41 AM 42.1°F5.6°C 38.3°F3.5°C 86% Calm Calm 1.0 mph1.6 kmh 29.98 in1015.2 mb 0.02 in0.5 mm 0.09 in/hr2.3 mm/hr 0.02 in0.5 mm
04:34 AM 42.1°F5.6°C 38.5°F3.6°C 87% Calm Calm 1.0 mph1.6 kmh 29.98 in1015.2 mb 0.01 in0.3 mm 0.00 in/hr0.0 mm/hr 0.02 in0.5 mm
04:27 AM 41.9°F5.5°C 38.3°F3.5°C 87% Calm Calm -- 29.99 in1015.6 mb 0.01 in0.3 mm 0.00 in/hr0.0 mm/hr 0.02 in0.5 mm
04:20 AM 41.9°F5.5°C 38.3°F3.5°C 87% Calm Calm -- 29.99 in1015.6 mb 0.01 in0.3 mm 0.09 in/hr2.3 mm/hr 0.02 in0.5 mm
04:13 AM 41.9°F5.5°C 38.3°F3.5°C 87% Calm Calm -- 29.99 in1015.6 mb 0.00 in0.0 mm 0.00 in/hr0.0 mm/hr 0.01 in0.3 mm
04:06 AM 41.9°F5.5°C 38.3°F3.5°C 87% Calm Calm -- 29.99 in1015.6 mb 0.00 in0.0 mm 0.00 in/hr0.0 mm/hr 0.01 in0.3 mm
03:59 AM 42.1°F5.6°C 38.5°F3.6°C 87% Calm Calm -- 30.00 in1015.9 mb 0.00 in0.0 mm 0.00 in/hr0.0 mm/hr 0.01 in0.3 mm
03:52 AM 42.1°F5.6°C 38.5°F3.6°C 87% Calm Calm -- 30.00 in1015.9 mb 0.00 in0.0 mm 0.00 in/hr0.0 mm/hr 0.01 in0.3 mm
03:45 AM 42.1°F5.6°C 38.5°F3.6°C 87% Calm Calm -- 30.00 in1015.9 mb 0.00 in0.0 mm 0.00 in/hr0.0 mm/hr 0.01 in0.3 mm
03:38 AM 42.1°F5.6°C 38.5°F3.6°C 87% Calm Calm -- 30.00 in1015.9 mb 0.00 in0.0 mm 0.00 in/hr0.0 mm/hr 0.01 in0.3 mm
03:31 AM 42.3°F5.7°C 38.7°F3.7°C 87% Calm Calm -- 30.00 in1015.9 mb 0.00 in0.0 mm 0.00 in/hr0.0 mm/hr 0.01 in0.3 mm
03:24 AM 42.3°F5.7°C 38.7°F3.7°C 87% Calm Calm -- 30.01 in1016.3 mb 0.00 in0.0 mm 0.00 in/hr0.0 mm/hr 0.01 in0.3 mm
03:17 AM 42.4°F5.8°C 38.8°F3.8°C 87% Calm Calm -- 30.01 in1016.3 mb 0.01 in0.3 mm 0.00 in/hr0.0 mm/hr 0.01 in0.3 mm
03:10 AM 42.4°F5.8°C 38.8°F3.8°C 87% Calm Calm -- 30.01 in1016.3 mb 0.01 in0.3 mm 0.00 in/hr0.0 mm/hr 0.01 in0.3 mm
03:03 AM 42.4°F5.8°C 38.8°F3.8°C 87% Calm Calm -- 30.01 in1016.3 mb 0.01 in0.3 mm 0.00 in/hr0.0 mm/hr 0.01 in0.3 mm
02:56 AM 42.4°F5.8°C 38.8°F3.8°C 87% Calm Calm -- 30.01 in1016.3 mb 0.01 in0.3 mm 0.00 in/hr0.0 mm/hr 0.01 in0.3 mm
02:49 AM 42.6°F5.9°C 39.0°F3.9°C 87% Calm Calm -- 30.01 in1016.3 mb 0.01 in0.3 mm 0.00 in/hr0.0 mm/hr 0.01 in0.3 mm
02:42 AM 42.6°F5.9°C 39.0°F3.9°C 87% Calm Calm -- 30.02 in1016.6 mb 0.01 in0.3 mm 0.00 in/hr0.0 mm/hr 0.01 in0.3 mm
02:35 AM 42.8°F6.0°C 39.2°F4.0°C 87% Calm Calm -- 30.02 in1016.6 mb 0.01 in0.3 mm 0.00 in/hr0.0 mm/hr 0.01 in0.3 mm
02:28 AM 43.0°F6.1°C 39.0°F3.9°C 86% Calm Calm -- 30.02 in1016.6 mb 0.01 in0.3 mm 0.00 in/hr0.0 mm/hr 0.01 in0.3 mm
02:21 AM 43.0°F6.1°C 39.0°F3.9°C 86% Calm Calm -- 30.02 in1016.6 mb 0.01 in0.3 mm 0.09 in/hr2.3 mm/hr 0.01 in0.3 mm
02:14 AM 43.2°F6.2°C 39.2°F4.0°C 86% Calm Calm -- 30.02 in1016.6 mb 0.00 in0.0 mm 0.00 in/hr0.0 mm/hr 0.00 in0.0 mm
02:07 AM 43.2°F6.2°C 38.8°F3.8°C 85% Calm Calm -- 30.02 in1016.6 mb 0.00 in0.0 mm 0.00 in/hr0.0 mm/hr 0.00 in0.0 mm
02:00 AM 43.2°F6.2°C 38.8°F3.8°C 85% Calm Calm 1.0 mph1.6 kmh 30.03 in1016.9 mb 0.00 in0.0 mm 0.00 in/hr0.0 mm/hr 0.00 in0.0 mm
01:53 AM 43.2°F6.2°C 39.0°F3.9°C 85% Calm Calm 1.0 mph1.6 kmh 30.03 in1016.9 mb 0.00 in0.0 mm 0.00 in/hr0.0 mm/hr 0.00 in0.0 mm
01:46 AM 43.2°F6.2°C 38.7°F3.7°C 84% Calm Calm -- 30.03 in1016.9 mb 0.00 in0.0 mm 0.00 in/hr0.0 mm/hr 0.00 in0.0 mm
01:39 AM 43.2°F6.2°C 38.7°F3.7°C 84% Calm Calm -- 30.03 in1016.9 mb 0.00 in0.0 mm 0.00 in/hr0.0 mm/hr 0.00 in0.0 mm
01:32 AM 43.2°F6.2°C 38.7°F3.7°C 84% Calm Calm -- 30.03 in1016.9 mb 0.00 in0.0 mm 0.00 in/hr0.0 mm/hr 0.00 in0.0 mm
01:25 AM 43.0°F6.1°C 38.5°F3.6°C 84% Calm Calm 1.0 mph1.6 kmh 30.04 in1017.3 mb 0.00 in0.0 mm 0.00 in/hr0.0 mm/hr 0.00 in0.0 mm
01:18 AM 43.0°F6.1°C 38.5°F3.6°C 84% Calm Calm 1.0 mph1.6 kmh 30.04 in1017.3 mb 0.00 in0.0 mm 0.00 in/hr0.0 mm/hr 0.00 in0.0 mm
01:11 AM 42.8°F6.0°C 38.7°F3.7°C 85% Calm Calm 1.0 mph1.6 kmh 30.04 in1017.3 mb 0.00 in0.0 mm 0.00 in/hr0.0 mm/hr 0.00 in0.0 mm
01:04 AM 42.8°F6.0°C 38.7°F3.7°C 85% Calm Calm 1.0 mph1.6 kmh 30.04 in1017.3 mb 0.00 in0.0 mm 0.00 in/hr0.0 mm/hr 0.00 in0.0 mm
12:57 AM 42.6°F5.9°C 38.8°F3.8°C 86% Calm Calm -- 30.04 in1017.3 mb 0.00 in0.0 mm 0.00 in/hr0.0 mm/hr 0.00 in0.0 mm
12:50 AM 42.6°F5.9°C 38.7°F3.7°C 86% Calm Calm -- 30.04 in1017.3 mb 0.00 in0.0 mm 0.00 in/hr0.0 mm/hr 0.00 in0.0 mm
12:43 AM 42.4°F5.8°C 38.5°F3.6°C 86% Calm Calm -- 30.04 in1017.3 mb 0.00 in0.0 mm 0.00 in/hr0.0 mm/hr 0.00 in0.0 mm
12:36 AM 42.3°F5.7°C 38.7°F3.7°C 87% Calm Calm -- 30.04 in1017.3 mb 0.00 in0.0 mm 0.00 in/hr0.0 mm/hr 0.00 in0.0 mm
12:29 AM 42.1°F5.6°C 38.5°F3.6°C 87% Calm Calm -- 30.04 in1017.3 mb 0.00 in0.0 mm 0.00 in/hr0.0 mm/hr 0.00 in0.0 mm
12:22 AM 42.1°F5.6°C 38.5°F3.6°C 87% Calm Calm -- 30.05 in1017.6 mb 0.00 in0.0 mm 0.00 in/hr0.0 mm/hr 0.00 in0.0 mm
12:15 AM 41.9°F5.5°C 38.3°F3.5°C 87% Calm Calm -- 30.05 in1017.6 mb 0.00 in0.0 mm 0.00 in/hr0.0 mm/hr 0.00 in0.0 mm
12:08 AM 41.7°F5.4°C 38.3°F3.5°C 87% Calm Calm -- 30.05 in1017.6 mb 0.00 in0.0 mm 0.00 in/hr0.0 mm/hr 0.00 in0.0 mm
12:01 AM 41.7°F5.4°C 38.1°F3.4°C 87% Calm Calm -- 30.05 in1017.6 mb 0.00 in0.0 mm 0.00 in/hr0.0 mm/hr 0.00 in0.0 mm